sensor_id;sensor_type;location;lat;lon;timestamp;pressure;altitude;pressure_sealevel;temperature;humidity
75192;BME280;63771;52.580;9.734;2024-03-06T00:02:04;101575.16;;;4.47;83.64
75192;BME280;63771;52.580;9.734;2024-03-06T00:04:32;101569.38;;;4.48;84.28
75192;BME280;63771;52.580;9.734;2024-03-06T00:06:58;101582.38;;;4.51;84.63
75192;BME280;63771;52.580;9.734;2024-03-06T00:09:24;101582.91;;;4.48;83.99
75192;BME280;63771;52.580;9.734;2024-03-06T00:11:52;101581.81;;;4.53;85.21
75192;BME280;63771;52.580;9.734;2024-03-06T00:14:22;101582.94;;;4.55;84.31
75192;BME280;63771;52.580;9.734;2024-03-06T00:16:48;101581.09;;;4.47;83.76
75192;BME280;63771;52.580;9.734;2024-03-06T00:19:19;101580.03;;;4.45;83.70
75192;BME280;63771;52.580;9.734;2024-03-06T00:21:44;101582.72;;;4.39;83.58
75192;BME280;63771;52.580;9.734;2024-03-06T00:24:16;101590.09;;;4.38;83.77
75192;BME280;63771;52.580;9.734;2024-03-06T00:26:42;101590.09;;;4.38;84.13
75192;BME280;63771;52.580;9.734;2024-03-06T00:29:08;101586.50;;;4.36;83.43
75192;BME280;63771;52.580;9.734;2024-03-06T00:31:34;101599.31;;;4.37;84.11
75192;BME280;63771;52.580;9.734;2024-03-06T00:33:59;101591.16;;;4.33;83.79
75192;BME280;63771;52.580;9.734;2024-03-06T00:36:24;101592.44;;;4.36;84.43
75192;BME280;63771;52.580;9.734;2024-03-06T00:38:50;101590.47;;;4.41;84.54
75192;BME280;63771;52.580;9.734;2024-03-06T00:41:15;101590.66;;;4.42;84.98
75192;BME280;63771;52.580;9.734;2024-03-06T00:43:40;101600.59;;;4.41;84.02
75192;BME280;63771;52.580;9.734;2024-03-06T00:46:06;101601.28;;;4.33;84.05
75192;BME280;63771;52.580;9.734;2024-03-06T00:48:31;101611.94;;;4.37;85.42
75192;BME280;63771;52.580;9.734;2024-03-06T00:50:56;101611.75;;;4.36;84.79
75192;BME280;63771;52.580;9.734;2024-03-06T00:53:22;101619.00;;;4.40;84.78
75192;BME280;63771;52.580;9.734;2024-03-06T00:55:47;101611.22;;;4.38;85.02
75192;BME280;63771;52.580;9.734;2024-03-06T00:58:12;101612.50;;;4.42;85.16
75192;BME280;63771;52.580;9.734;2024-03-06T01:00:38;101617.53;;;4.42;85.29
75192;BME280;63771;52.580;9.734;2024-03-06T01:03:04;101607.78;;;4.38;84.43
75192;BME280;63771;52.580;9.734;2024-03-06T01:05:29;101618.44;;;4.42;85.81
75192;BME280;63771;52.580;9.734;2024-03-06T01:07:55;101622.59;;;4.42;84.77
75192;BME280;63771;52.580;9.734;2024-03-06T01:10:22;101625.50;;;4.45;84.82
75192;BME280;63771;52.580;9.734;2024-03-06T01:12:47;101623.31;;;4.48;85.27
75192;BME280;63771;52.580;9.734;2024-03-06T01:15:13;101625.84;;;4.41;84.21
75192;BME280;63771;52.580;9.734;2024-03-06T01:17:38;101633.25;;;4.39;84.50
75192;BME280;63771;52.580;9.734;2024-03-06T01:20:07;101633.03;;;4.31;84.06
75192;BME280;63771;52.580;9.734;2024-03-06T01:22:36;101630.34;;;4.29;84.44
75192;BME280;63771;52.580;9.734;2024-03-06T01:25:01;101629.06;;;4.33;85.22
75192;BME280;63771;52.580;9.734;2024-03-06T01:27:27;101639.88;;;4.32;84.62
75192;BME280;63771;52.580;9.734;2024-03-06T01:29:52;101637.56;;;4.33;85.34
75192;BME280;63771;52.580;9.734;2024-03-06T01:32:18;101638.09;;;4.38;85.70
75192;BME280;63771;52.580;9.734;2024-03-06T01:34:43;101634.88;;;4.39;85.75
75192;BME280;63771;52.580;9.734;2024-03-06T01:37:08;101633.59;;;4.35;85.20
75192;BME280;63771;52.580;9.734;2024-03-06T01:39:34;101641.69;;;4.33;84.48
75192;BME280;63771;52.580;9.734;2024-03-06T01:42:03;101638.09;;;4.31;85.40
75192;BME280;63771;52.580;9.734;2024-03-06T01:44:29;101636.81;;;4.27;84.40
75192;BME280;63771;52.580;9.734;2024-03-06T01:46:54;101645.50;;;4.29;84.51
75192;BME280;63771;52.580;9.734;2024-03-06T01:49:21;101647.81;;;4.28;84.84
75192;BME280;63771;52.580;9.734;2024-03-06T01:51:57;101650.31;;;4.28;85.04
75192;BME280;63771;52.580;9.734;2024-03-06T01:54:25;101653.22;;;4.24;84.75
75192;BME280;63771;52.580;9.734;2024-03-06T01:56:51;101649.97;;;4.25;84.59
75192;BME280;63771;52.580;9.734;2024-03-06T01:59:18;101652.69;;;4.26;85.03
75192;BME280;63771;52.580;9.734;2024-03-06T02:01:45;101653.97;;;4.30;85.68
75192;BME280;63771;52.580;9.734;2024-03-06T02:04:12;101644.03;;;4.24;85.32
75192;BME280;63771;52.580;9.734;2024-03-06T02:06:41;101648.19;;;4.24;84.99
75192;BME280;63771;52.580;9.734;2024-03-06T02:09:07;101652.84;;;4.28;85.03
75192;BME280;63771;52.580;9.734;2024-03-06T02:11:34;101653.25;;;4.31;85.61
75192;BME280;63771;52.580;9.734;2024-03-06T02:14:00;101653.97;;;4.30;85.32
75192;BME280;63771;52.580;9.734;2024-03-06T02:16:25;101655.38;;;4.28;85.68
75192;BME280;63771;52.580;9.734;2024-03-06T02:18:56;101652.84;;;4.28;85.77
75192;BME280;63771;52.580;9.734;2024-03-06T02:21:23;101662.06;;;4.27;84.81
75192;BME280;63771;52.580;9.734;2024-03-06T02:23:51;101650.69;;;4.24;84.87
75192;BME280;63771;52.580;9.734;2024-03-06T02:26:18;101660.25;;;4.26;84.79
75192;BME280;63771;52.580;9.734;2024-03-06T02:28:55;101663.88;;;4.28;85.30
75192;BME280;63771;52.580;9.734;2024-03-06T02:31:21;101664.09;;;4.37;87.28
75192;BME280;63771;52.580;9.734;2024-03-06T02:33:48;101663.88;;;4.28;85.40
75192;BME280;63771;52.580;9.734;2024-03-06T02:36:15;101674.91;;;4.29;85.34
75192;BME280;63771;52.580;9.734;2024-03-06T02:38:42;101666.22;;;4.27;85.57
75192;BME280;63771;52.580;9.734;2024-03-06T02:41:07;101669.06;;;4.23;85.39
75192;BME280;63771;52.580;9.734;2024-03-06T02:43:33;101670.53;;;4.21;84.83
75192;BME280;63771;52.580;9.734;2024-03-06T02:45:59;101669.28;;;4.24;86.88
75192;BME280;63771;52.580;9.734;2024-03-06T02:48:24;101676.16;;;4.32;87.35
75192;BME280;63771;52.580;9.734;2024-03-06T02:50:50;101669.84;;;4.29;86.16
75192;BME280;63771;52.580;9.734;2024-03-06T02:53:15;101671.81;;;4.24;85.17
75192;BME280;63771;52.580;9.734;2024-03-06T02:55:40;101671.25;;;4.27;85.93
75192;BME280;63771;52.580;9.734;2024-03-06T02:58:06;101671.97;;;4.18;85.60
75192;BME280;63771;52.580;9.734;2024-03-06T03:00:31;101670.00;;;4.23;86.83
75192;BME280;63771;52.580;9.734;2024-03-06T03:02:57;101676.28;;;4.19;85.33
75192;BME280;63771;52.580;9.734;2024-03-06T03:05:22;101671.25;;;4.19;85.54
75192;BME280;63771;52.580;9.734;2024-03-06T03:07:49;101669.44;;;4.18;85.92
75192;BME280;63771;52.580;9.734;2024-03-06T03:10:14;101668.16;;;4.22;86.20
75192;BME280;63771;52.580;9.734;2024-03-06T03:12:39;101661.13;;;4.19;85.70
75192;BME280;63771;52.580;9.734;2024-03-06T03:15:09;101669.63;;;4.20;86.00
75192;BME280;63771;52.580;9.734;2024-03-06T03:17:34;101666.19;;;4.19;85.12
75192;BME280;63771;52.580;9.734;2024-03-06T03:20:00;101671.25;;;4.19;85.63
75192;BME280;63771;52.580;9.734;2024-03-06T03:22:26;101669.78;;;4.22;86.42
75192;BME280;63771;52.580;9.734;2024-03-06T03:24:54;101675.97;;;4.24;86.38
75192;BME280;63771;52.580;9.734;2024-03-06T03:27:19;101671.25;;;4.19;86.14
75192;BME280;63771;52.580;9.734;2024-03-06T03:29:45;101671.41;;;4.21;86.21
75192;BME280;63771;52.580;9.734;2024-03-06T03:32:10;101677.38;;;4.22;85.75
75192;BME280;63771;52.580;9.734;2024-03-06T03:34:35;101684.59;;;4.26;86.81
75192;BME280;63771;52.580;9.734;2024-03-06T03:37:01;101681.00;;;4.24;86.53
75192;BME280;63771;52.580;9.734;2024-03-06T03:39:27;101675.97;;;4.24;87.02
75192;BME280;63771;52.580;9.734;2024-03-06T03:41:52;101677.69;;;4.17;85.82
75192;BME280;63771;52.580;9.734;2024-03-06T03:44:19;101686.41;;;4.19;85.42
75192;BME280;63771;52.580;9.734;2024-03-06T03:46:44;101676.28;;;4.19;86.73
75192;BME280;63771;52.580;9.734;2024-03-06T03:49:10;101687.28;;;4.20;85.96
75192;BME280;63771;52.580;9.734;2024-03-06T03:51:36;101678.44;;;4.16;86.40
75192;BME280;63771;52.580;9.734;2024-03-06T03:54:02;101684.78;;;4.20;86.28
75192;BME280;63771;52.580;9.734;2024-03-06T03:56:28;101683.16;;;4.21;87.08
75192;BME280;63771;52.580;9.734;2024-03-06T03:58:53;101685.84;;;4.22;86.94
75192;BME280;63771;52.580;9.734;2024-03-06T04:01:18;101685.28;;;4.17;86.07
75192;BME280;63771;52.580;9.734;2024-03-06T04:03:44;101689.22;;;4.08;86.04
75192;BME280;63771;52.580;9.734;2024-03-06T04:06:10;101682.00;;;4.04;86.08
75192;BME280;63771;52.580;9.734;2024-03-06T04:08:35;101687.53;;;4.02;86.24
75192;BME280;63771;52.580;9.734;2024-03-06T04:11:01;101696.47;;;4.12;87.17
75192;BME280;63771;52.580;9.734;2024-03-06T04:13:26;101696.09;;;4.16;87.78
75192;BME280;63771;52.580;9.734;2024-03-06T04:15:52;101700.06;;;4.07;87.00
75192;BME280;63771;52.580;9.734;2024-03-06T04:18:17;101704.53;;;4.03;86.98
75192;BME280;63771;52.580;9.734;2024-03-06T04:20:42;101707.75;;;4.02;87.06
75192;BME280;63771;52.580;9.734;2024-03-06T04:23:08;101702.34;;;3.99;86.83
75192;BME280;63771;52.580;9.734;2024-03-06T04:25:33;101703.09;;;4.05;87.95
75192;BME280;63771;52.580;9.734;2024-03-06T04:27:58;101702.56;;;4.07;88.22
75192;BME280;63771;52.580;9.734;2024-03-06T04:30:24;101707.97;;;4.10;88.49
75192;BME280;63771;52.580;9.734;2024-03-06T04:32:50;101714.50;;;4.15;88.53
75192;BME280;63771;52.580;9.734;2024-03-06T04:35:15;101715.38;;;4.09;87.48
75192;BME280;63771;52.580;9.734;2024-03-06T04:37:42;101717.19;;;4.10;88.20
75192;BME280;63771;52.580;9.734;2024-03-06T04:40:08;101720.59;;;4.10;88.21
75192;BME280;63771;52.580;9.734;2024-03-06T04:42:35;101724.25;;;4.12;88.31
75192;BME280;63771;52.580;9.734;2024-03-06T04:45:04;101730.53;;;4.09;87.70
75192;BME280;63771;52.580;9.734;2024-03-06T04:47:30;101728.50;;;4.06;87.86
75192;BME280;63771;52.580;9.734;2024-03-06T04:49:55;101734.28;;;4.05;87.95
75192;BME280;63771;52.580;9.734;2024-03-06T04:52:20;101732.50;;;4.11;88.56
75192;BME280;63771;52.580;9.734;2024-03-06T04:54:46;101742.44;;;4.10;88.23
75192;BME280;63771;52.580;9.734;2024-03-06T04:57:11;101741.84;;;4.05;88.14
75192;BME280;63771;52.580;9.734;2024-03-06T04:59:36;101746.19;;;4.06;88.60
75192;BME280;63771;52.580;9.734;2024-03-06T05:02:01;101742.19;;;4.01;88.38
75192;BME280;63771;52.580;9.734;2024-03-06T05:04:28;101735.16;;;3.99;88.88
75192;BME280;63771;52.580;9.734;2024-03-06T05:06:54;101742.75;;;4.06;88.86
75192;BME280;63771;52.580;9.734;2024-03-06T05:09:19;101746.59;;;4.09;89.40
75192;BME280;63771;52.580;9.734;2024-03-06T05:11:44;101749.09;;;4.09;89.07
75192;BME280;63771;52.580;9.734;2024-03-06T05:14:10;101748.38;;;4.10;89.37
75192;BME280;63771;52.580;9.734;2024-03-06T05:16:35;101748.13;;;4.02;88.87
75192;BME280;63771;52.580;9.734;2024-03-06T05:19:00;101753.72;;;3.99;88.74
75192;BME280;63771;52.580;9.734;2024-03-06T05:21:26;101755.16;;;3.97;89.28
75192;BME280;63771;52.580;9.734;2024-03-06T05:23:51;101759.50;;;3.98;89.63
75192;BME280;63771;52.580;9.734;2024-03-06T05:26:17;101758.38;;;3.96;89.94
75192;BME280;63771;52.580;9.734;2024-03-06T05:28:42;101765.97;;;3.96;90.00
75192;BME280;63771;52.580;9.734;2024-03-06T05:31:18;101764.91;;;4.01;89.75
75192;BME280;63771;52.580;9.734;2024-03-06T05:33:44;101768.88;;;3.99;89.90
75192;BME280;63771;52.580;9.734;2024-03-06T05:36:10;101770.81;;;3.95;89.85
75192;BME280;63771;52.580;9.734;2024-03-06T05:38:35;101776.78;;;3.95;89.99
75192;BME280;63771;52.580;9.734;2024-03-06T05:41:01;101774.78;;;3.92;90.36
75192;BME280;63771;52.580;9.734;2024-03-06T05:43:27;101782.22;;;3.98;90.50
75192;BME280;63771;52.580;9.734;2024-03-06T05:45:53;101785.81;;;4.00;90.71
75192;BME280;63771;52.580;9.734;2024-03-06T05:48:18;101780.78;;;4.00;90.55
75192;BME280;63771;52.580;9.734;2024-03-06T05:50:43;101793.06;;;4.04;90.39
75192;BME280;63771;52.580;9.734;2024-03-06T05:53:09;101785.81;;;4.00;89.93
75192;BME280;63771;52.580;9.734;2024-03-06T05:55:36;101791.13;;;4.09;90.35
75192;BME280;63771;52.580;9.734;2024-03-06T05:58:02;101786.06;;;4.09;91.06
75192;BME280;63771;52.580;9.734;2024-03-06T06:00:27;101794.72;;;4.11;90.41
75192;BME280;63771;52.580;9.734;2024-03-06T06:02:52;101792.41;;;4.12;90.75
75192;BME280;63771;52.580;9.734;2024-03-06T06:05:18;101790.41;;;4.10;90.22
75192;BME280;63771;52.580;9.734;2024-03-06T06:07:45;101793.06;;;4.04;89.91
75192;BME280;63771;52.580;9.734;2024-03-06T06:10:10;101803.69;;;4.02;90.08
75192;BME280;63771;52.580;9.734;2024-03-06T06:12:36;101807.69;;;4.07;90.59
75192;BME280;63771;52.580;9.734;2024-03-06T06:15:01;101808.63;;;4.07;90.27
75192;BME280;63771;52.580;9.734;2024-03-06T06:17:27;101812.09;;;4.15;90.96
75192;BME280;63771;52.580;9.734;2024-03-06T06:19:53;101815.84;;;4.11;90.49
75192;BME280;63771;52.580;9.734;2024-03-06T06:22:18;101820.66;;;4.03;90.75
75192;BME280;63771;52.580;9.734;2024-03-06T06:24:43;101816.88;;;4.06;91.08
75192;BME280;63771;52.580;9.734;2024-03-06T06:27:10;101822.16;;;4.08;90.73
75192;BME280;63771;52.580;9.734;2024-03-06T06:29:36;101823.41;;;4.11;90.64
75192;BME280;63771;52.580;9.734;2024-03-06T06:32:01;101832.09;;;4.13;90.19
75192;BME280;63771;52.580;9.734;2024-03-06T06:34:26;101832.81;;;4.12;90.19
75192;BME280;63771;52.580;9.734;2024-03-06T06:36:53;101833.72;;;4.13;90.35
75192;BME280;63771;52.580;9.734;2024-03-06T06:39:18;101826.66;;;4.10;89.89
75192;BME280;63771;52.580;9.734;2024-03-06T06:41:44;101828.13;;;4.15;90.44
75192;BME280;63771;52.580;9.734;2024-03-06T06:44:09;101833.59;;;4.18;91.28
75192;BME280;63771;52.580;9.734;2024-03-06T06:46:34;101829.03;;;4.16;90.17
75192;BME280;63771;52.580;9.734;2024-03-06T06:49:00;101831.38;;;4.14;89.68
75192;BME280;63771;52.580;9.734;2024-03-06T06:51:25;101843.69;;;4.18;89.33
75192;BME280;63771;52.580;9.734;2024-03-06T06:53:50;101841.19;;;4.26;90.11
75192;BME280;63771;52.580;9.734;2024-03-06T06:56:16;101853.44;;;4.23;90.26
75192;BME280;63771;52.580;9.734;2024-03-06T06:58:41;101861.59;;;4.27;89.92
75192;BME280;63771;52.580;9.734;2024-03-06T07:01:08;101854.16;;;4.22;89.61
75192;BME280;63771;52.580;9.734;2024-03-06T07:03:33;101860.09;;;4.22;89.54
75192;BME280;63771;52.580;9.734;2024-03-06T07:05:59;101870.06;;;4.28;90.91
75192;BME280;63771;52.580;9.734;2024-03-06T07:08:24;101868.66;;;4.30;89.83
75192;BME280;63771;52.580;9.734;2024-03-06T07:10:50;101877.84;;;4.29;88.74
75192;BME280;63771;52.580;9.734;2024-03-06T07:13:16;101876.56;;;4.26;88.65
75192;BME280;63771;52.580;9.734;2024-03-06T07:15:42;101881.28;;;4.30;89.51
75192;BME280;63771;52.580;9.734;2024-03-06T07:18:08;101877.63;;;4.28;88.33
75192;BME280;63771;52.580;9.734;2024-03-06T07:20:33;101887.41;;;4.32;89.43
75192;BME280;63771;52.580;9.734;2024-03-06T07:22:58;101895.72;;;4.31;88.90
75192;BME280;63771;52.580;9.734;2024-03-06T07:25:24;101888.53;;;4.34;89.25
75192;BME280;63771;52.580;9.734;2024-03-06T07:27:49;101891.56;;;4.31;88.50
75192;BME280;63771;52.580;9.734;2024-03-06T07:30:15;101901.81;;;4.26;88.54
75192;BME280;63771;52.580;9.734;2024-03-06T07:32:43;101907.94;;;4.28;88.89
75192;BME280;63771;52.580;9.734;2024-03-06T07:35:08;101906.00;;;4.32;88.89
75192;BME280;63771;52.580;9.734;2024-03-06T07:37:40;101913.13;;;4.42;89.44
75192;BME280;63771;52.580;9.734;2024-03-06T07:40:06;101915.66;;;4.42;88.71
75192;BME280;63771;52.580;9.734;2024-03-06T07:42:32;101922.00;;;4.45;88.38
75192;BME280;63771;52.580;9.734;2024-03-06T07:44:58;101921.84;;;4.51;88.60
75192;BME280;63771;52.580;9.734;2024-03-06T07:47:24;101925.16;;;4.57;88.84
75192;BME280;63771;52.580;9.734;2024-03-06T07:49:52;101921.91;;;4.58;88.22
75192;BME280;63771;52.580;9.734;2024-03-06T07:52:17;101929.88;;;4.61;88.39
75192;BME280;63771;52.580;9.734;2024-03-06T07:54:43;101924.09;;;4.62;87.94
75192;BME280;63771;52.580;9.734;2024-03-06T07:57:08;101934.25;;;4.69;88.23
75192;BME280;63771;52.580;9.734;2024-03-06T07:59:35;101934.25;;;4.69;87.62
75192;BME280;63771;52.580;9.734;2024-03-06T08:02:00;101941.88;;;4.77;88.04
75192;BME280;63771;52.580;9.734;2024-03-06T08:04:26;101943.16;;;4.80;88.10
75192;BME280;63771;52.580;9.734;2024-03-06T08:06:52;101936.22;;;4.92;89.13
75192;BME280;63771;52.580;9.734;2024-03-06T08:09:17;101938.19;;;4.94;88.05
75192;BME280;63771;52.580;9.734;2024-03-06T08:11:44;101949.59;;;4.98;87.14
75192;BME280;63771;52.580;9.734;2024-03-06T08:14:10;101944.38;;;4.96;87.09
75192;BME280;63771;52.580;9.734;2024-03-06T08:16:35;101954.13;;;5.01;87.46
75192;BME280;63771;52.580;9.734;2024-03-06T08:19:02;101947.06;;;4.98;86.77
75192;BME280;63771;52.580;9.734;2024-03-06T08:21:27;101953.78;;;5.05;86.50
75192;BME280;63771;52.580;9.734;2024-03-06T08:23:53;101955.41;;;5.04;86.51
75192;BME280;63771;52.580;9.734;2024-03-06T08:26:18;101958.31;;;5.07;87.00
75192;BME280;63771;52.580;9.734;2024-03-06T08:28:43;101967.75;;;5.15;86.90
75192;BME280;63771;52.580;9.734;2024-03-06T08:31:09;101968.13;;;5.18;86.36
75192;BME280;63771;52.580;9.734;2024-03-06T08:33:34;101971.91;;;5.15;86.30
75192;BME280;63771;52.580;9.734;2024-03-06T08:35:59;101976.25;;;5.16;86.22
75192;BME280;63771;52.580;9.734;2024-03-06T08:38:25;101979.34;;;5.20;86.22
75192;BME280;63771;52.580;9.734;2024-03-06T08:40:50;101982.97;;;5.22;86.38
75192;BME280;63771;52.580;9.734;2024-03-06T08:43:16;101982.66;;;5.34;87.31
75192;BME280;63771;52.580;9.734;2024-03-06T08:45:42;101984.72;;;5.43;87.94
75192;BME280;63771;52.580;9.734;2024-03-06T08:48:07;101982.19;;;5.43;86.55
75192;BME280;63771;52.580;9.734;2024-03-06T08:50:33;101991.75;;;5.46;85.15
75192;BME280;63771;52.580;9.734;2024-03-06T08:52:58;101991.75;;;5.46;84.70
75192;BME280;63771;52.580;9.734;2024-03-06T08:55:23;101984.16;;;5.46;84.84
75192;BME280;63771;52.580;9.734;2024-03-06T08:57:52;101991.03;;;5.47;84.43
75192;BME280;63771;52.580;9.734;2024-03-06T09:00:18;101997.00;;;5.47;84.45
75192;BME280;63771;52.580;9.734;2024-03-06T09:02:43;101986.72;;;5.53;85.22
75192;BME280;63771;52.580;9.734;2024-03-06T09:05:09;101997.22;;;5.63;85.92
75192;BME280;63771;52.580;9.734;2024-03-06T09:07:38;101991.84;;;5.67;86.00
75192;BME280;63771;52.580;9.734;2024-03-06T09:10:06;101998.69;;;5.68;84.56
75192;BME280;63771;52.580;9.734;2024-03-06T09:12:32;102000.53;;;5.69;83.53
75192;BME280;63771;52.580;9.734;2024-03-06T09:14:57;102004.53;;;5.74;84.15
75192;BME280;63771;52.580;9.734;2024-03-06T09:17:25;102001.06;;;5.74;83.23
75192;BME280;63771;52.580;9.734;2024-03-06T09:19:50;102005.28;;;5.81;83.76
75192;BME280;63771;52.580;9.734;2024-03-06T09:22:16;102015.41;;;5.81;82.77
75192;BME280;63771;52.580;9.734;2024-03-06T09:24:42;102011.06;;;5.87;84.00
75192;BME280;63771;52.580;9.734;2024-03-06T09:27:07;102011.13;;;5.94;84.67
75192;BME280;63771;52.580;9.734;2024-03-06T09:29:33;102017.66;;;5.99;82.67
75192;BME280;63771;52.580;9.734;2024-03-06T09:31:58;102029.25;;;6.04;82.63
75192;BME280;63771;52.580;9.734;2024-03-06T09:34:24;102028.50;;;6.05;82.56
75192;BME280;63771;52.580;9.734;2024-03-06T09:36:50;102034.53;;;6.13;83.02
75192;BME280;63771;52.580;9.734;2024-03-06T09:39:16;102032.34;;;6.16;82.85
75192;BME280;63771;52.580;9.734;2024-03-06T09:41:51;102034.88;;;6.16;81.67
75192;BME280;63771;52.580;9.734;2024-03-06T09:44:17;102039.81;;;6.21;82.25
75192;BME280;63771;52.580;9.734;2024-03-06T09:46:49;102043.06;;;6.27;82.07
75192;BME280;63771;52.580;9.734;2024-03-06T09:49:16;102038.91;;;6.28;81.18
75192;BME280;63771;52.580;9.734;2024-03-06T09:51:44;102036.88;;;6.25;81.57
75192;BME280;63771;52.580;9.734;2024-03-06T09:54:15;102044.88;;;6.36;82.53
75192;BME280;63771;52.580;9.734;2024-03-06T09:56:44;102039.09;;;6.44;81.67
75192;BME280;63771;52.580;9.734;2024-03-06T09:59:10;102051.78;;;6.51;80.71
75192;BME280;63771;52.580;9.734;2024-03-06T10:01:40;102042.34;;;6.57;80.81
75192;BME280;63771;52.580;9.734;2024-03-06T10:04:19;102051.78;;;6.65;80.52
75192;BME280;63771;52.580;9.734;2024-03-06T10:06:45;102051.78;;;6.58;79.22
75192;BME280;63771;52.580;9.734;2024-03-06T10:09:18;102057.22;;;6.61;79.96
75192;BME280;63771;52.580;9.734;2024-03-06T10:11:44;102053.25;;;6.63;79.49
75192;BME280;63771;52.580;9.734;2024-03-06T10:14:09;102053.25;;;6.70;79.82
75192;BME280;63771;52.580;9.734;2024-03-06T10:17:00;102064.09;;;6.76;79.74
75192;BME280;63771;52.580;9.734;2024-03-06T10:19:28;102070.78;;;6.83;79.82
75192;BME280;63771;52.580;9.734;2024-03-06T10:21:55;102065.91;;;6.92;79.85
75192;BME280;63771;52.580;9.734;2024-03-06T10:24:24;102058.13;;;6.97;78.82
75192;BME280;63771;52.580;9.734;2024-03-06T10:26:54;102069.34;;;7.06;77.13
75192;BME280;63771;52.580;9.734;2024-03-06T10:29:22;102067.53;;;7.13;77.48
75192;BME280;63771;52.580;9.734;2024-03-06T10:31:52;102069.84;;;7.25;78.23
75192;BME280;63771;52.580;9.734;2024-03-06T10:34:20;102065.13;;;7.36;77.64
75192;BME280;63771;52.580;9.734;2024-03-06T10:36:45;102060.78;;;7.35;74.97
75192;BME280;63771;52.580;9.734;2024-03-06T10:39:12;102071.09;;;7.43;75.17
75192;BME280;63771;52.580;9.734;2024-03-06T10:41:41;102069.63;;;7.52;74.60
75192;BME280;63771;52.580;9.734;2024-03-06T10:44:12;102070.50;;;7.60;74.95
75192;BME280;63771;52.580;9.734;2024-03-06T10:46:43;102068.66;;;7.66;72.89
75192;BME280;63771;52.580;9.734;2024-03-06T10:49:10;102065.38;;;7.74;73.06
75192;BME280;63771;52.580;9.734;2024-03-06T10:51:38;102067.50;;;7.85;74.13
75192;BME280;63771;52.580;9.734;2024-03-06T10:54:06;102070.22;;;7.94;73.35
75192;BME280;63771;52.580;9.734;2024-03-06T10:56:33;102070.31;;;8.03;74.11
75192;BME280;63771;52.580;9.734;2024-03-06T10:58:59;102070.63;;;8.13;73.87
75192;BME280;63771;52.580;9.734;2024-03-06T11:01:25;102068.78;;;8.19;72.78
75192;BME280;63771;52.580;9.734;2024-03-06T11:03:51;102068.19;;;8.29;72.46
75192;BME280;63771;52.580;9.734;2024-03-06T11:06:17;102068.50;;;8.39;72.34
75192;BME280;63771;52.580;9.734;2024-03-06T11:08:43;102067.75;;;8.47;71.43
75192;BME280;63771;52.580;9.734;2024-03-06T11:11:21;102074.28;;;8.45;69.06
75192;BME280;63771;52.580;9.734;2024-03-06T11:13:47;102069.72;;;8.50;68.59
75192;BME280;63771;52.580;9.734;2024-03-06T11:16:13;102077.47;;;8.58;70.20
75192;BME280;63771;52.580;9.734;2024-03-06T11:23:32;102076.63;;;8.74;68.50
75192;BME280;63771;52.580;9.734;2024-03-06T11:26:01;102070.94;;;8.83;69.65
75192;BME280;63771;52.580;9.734;2024-03-06T11:28:30;102077.44;;;8.88;69.48
75192;BME280;63771;52.580;9.734;2024-03-06T11:31:06;102075.22;;;8.92;67.08
75192;BME280;63771;52.580;9.734;2024-03-06T11:33:39;102079.16;;;8.97;66.44
75192;BME280;63771;52.580;9.734;2024-03-06T11:36:27;102081.16;;;8.99;63.91
75192;BME280;63771;52.580;9.734;2024-03-06T11:39:06;102078.41;;;8.98;64.21
75192;BME280;63771;52.580;9.734;2024-03-06T11:41:49;102074.44;;;9.00;65.39
75192;BME280;63771;52.580;9.734;2024-03-06T11:44:21;102081.91;;;8.98;63.20
75192;BME280;63771;52.580;9.734;2024-03-06T11:49:22;102074.06;;;8.97;66.50
75192;BME280;63771;52.580;9.734;2024-03-06T11:51:53;102079.28;;;9.05;67.51
75192;BME280;63771;52.580;9.734;2024-03-06T11:54:19;102076.91;;;9.07;64.49
75192;BME280;63771;52.580;9.734;2024-03-06T11:56:49;102074.03;;;9.04;62.42
75192;BME280;63771;52.580;9.734;2024-03-06T11:59:39;102081.25;;;9.08;64.99
75192;BME280;63771;52.580;9.734;2024-03-06T12:02:05;102080.69;;;9.10;66.04
75192;BME280;63771;52.580;9.734;2024-03-06T12:04:31;102076.34;;;9.09;64.59
75192;BME280;63771;52.580;9.734;2024-03-06T12:06:59;102084.47;;;9.14;65.67
75192;BME280;63771;52.580;9.734;2024-03-06T12:09:25;102085.69;;;9.18;66.23
75192;BME280;63771;52.580;9.734;2024-03-06T12:11:52;102086.06;;;9.21;66.73
75192;BME280;63771;52.580;9.734;2024-03-06T12:14:20;102078.25;;;9.19;65.34
75192;BME280;63771;52.580;9.734;2024-03-06T12:17:00;102068.63;;;9.17;63.73
75192;BME280;63771;52.580;9.734;2024-03-06T12:19:31;102085.69;;;9.18;65.23
75192;BME280;63771;52.580;9.734;2024-03-06T12:22:03;102083.00;;;9.16;65.37
75192;BME280;63771;52.580;9.734;2024-03-06T12:24:29;102083.00;;;9.16;65.22
75192;BME280;63771;52.580;9.734;2024-03-06T12:27:02;102084.81;;;9.17;66.32
75192;BME280;63771;52.580;9.734;2024-03-06T12:29:32;102076.41;;;9.18;66.70
75192;BME280;63771;52.580;9.734;2024-03-06T12:31:58;102077.00;;;9.15;65.35
75192;BME280;63771;52.580;9.734;2024-03-06T12:34:24;102076.59;;;9.20;66.18
75192;BME280;63771;52.580;9.734;2024-03-06T12:36:49;102083.66;;;9.22;67.11
75192;BME280;63771;52.580;9.734;2024-03-06T12:39:16;102076.38;;;9.25;67.49
75192;BME280;63771;52.580;9.734;2024-03-06T12:41:50;102084.81;;;9.17;63.81
75192;BME280;63771;52.580;9.734;2024-03-06T12:44:15;102070.50;;;9.10;63.87
75192;BME280;63771;52.580;9.734;2024-03-06T12:46:44;102070.34;;;9.09;64.05
75192;BME280;63771;52.580;9.734;2024-03-06T12:49:10;102074.31;;;9.14;66.51
75192;BME280;63771;52.580;9.734;2024-03-06T12:51:35;102073.16;;;9.19;67.63
75192;BME280;63771;52.580;9.734;2024-03-06T12:54:01;102074.56;;;9.24;67.46
75192;BME280;63771;52.580;9.734;2024-03-06T12:56:26;102061.50;;;9.21;65.87
75192;BME280;63771;52.580;9.734;2024-03-06T12:58:52;102067.84;;;9.25;66.87
75192;BME280;63771;52.580;9.734;2024-03-06T13:01:17;102067.25;;;9.27;67.78
75192;BME280;63771;52.580;9.734;2024-03-06T13:03:42;102062.50;;;9.30;68.14
75192;BME280;63771;52.580;9.734;2024-03-06T13:06:08;102064.81;;;9.36;68.16